sensor_id;sensor_type;location;lat;lon;timestamp;P1;durP1;ratioP1;P2;durP2;ratioP2
58581;SDS011;44361;51.476;5.700;2023-06-24T00:00:59;24.50;;;17.58;;
58581;SDS011;44361;51.476;5.700;2023-06-24T00:03:26;24.30;;;16.05;;
58581;SDS011;44361;51.476;5.700;2023-06-24T00:05:52;24.65;;;18.63;;
58581;SDS011;44361;51.476;5.700;2023-06-24T00:08:18;25.33;;;17.95;;
58581;SDS011;44361;51.476;5.700;2023-06-24T00:10:46;23.55;;;18.30;;
58581;SDS011;44361;51.476;5.700;2023-06-24T00:13:12;30.00;;;19.40;;
58581;SDS011;44361;51.476;5.700;2023-06-24T00:15:39;24.08;;;17.48;;
58581;SDS011;44361;51.476;5.700;2023-06-24T00:18:11;24.80;;;17.98;;
58581;SDS011;44361;51.476;5.700;2023-06-24T00:20:37;23.40;;;18.42;;
58581;SDS011;44361;51.476;5.700;2023-06-24T00:23:03;24.65;;;17.90;;
58581;SDS011;44361;51.476;5.700;2023-06-24T00:25:29;25.60;;;18.50;;
58581;SDS011;44361;51.476;5.700;2023-06-24T00:27:55;25.80;;;17.98;;
58581;SDS011;44361;51.476;5.700;2023-06-24T00:30:20;25.85;;;17.65;;
58581;SDS011;44361;51.476;5.700;2023-06-24T00:32:47;32.17;;;19.50;;
58581;SDS011;44361;51.476;5.700;2023-06-24T00:35:12;28.73;;;18.92;;
58581;SDS011;44361;51.476;5.700;2023-06-24T00:37:39;28.05;;;19.13;;
58581;SDS011;44361;51.476;5.700;2023-06-24T00:40:05;25.35;;;18.85;;
58581;SDS011;44361;51.476;5.700;2023-06-24T00:42:31;31.55;;;19.13;;
58581;SDS011;44361;51.476;5.700;2023-06-24T00:44:57;27.27;;;19.73;;
58581;SDS011;44361;51.476;5.700;2023-06-24T00:47:23;31.67;;;21.25;;
58581;SDS011;44361;51.476;5.700;2023-06-24T00:49:48;29.45;;;19.90;;
58581;SDS011;44361;51.476;5.700;2023-06-24T00:52:14;32.97;;;19.92;;
58581;SDS011;44361;51.476;5.700;2023-06-24T00:54:40;35.55;;;19.30;;
58581;SDS011;44361;51.476;5.700;2023-06-24T00:57:09;32.03;;;21.45;;
58581;SDS011;44361;51.476;5.700;2023-06-24T00:59:35;32.35;;;22.05;;
58581;SDS011;44361;51.476;5.700;2023-06-24T01:02:02;30.25;;;21.02;;
58581;SDS011;44361;51.476;5.700;2023-06-24T01:04:29;31.05;;;21.30;;
58581;SDS011;44361;51.476;5.700;2023-06-24T01:06:58;30.88;;;21.60;;
58581;SDS011;44361;51.476;5.700;2023-06-24T01:09:24;30.67;;;22.13;;
58581;SDS011;44361;51.476;5.700;2023-06-24T01:11:50;31.73;;;22.13;;
58581;SDS011;44361;51.476;5.700;2023-06-24T01:14:16;31.88;;;21.48;;
58581;SDS011;44361;51.476;5.700;2023-06-24T01:28:40;30.13;;;21.52;;
58581;SDS011;44361;51.476;5.700;2023-06-24T01:31:29;28.17;;;20.27;;
58581;SDS011;44361;51.476;5.700;2023-06-24T01:37:00;31.52;;;21.25;;
58581;SDS011;44361;51.476;5.700;2023-06-24T01:39:37;30.58;;;21.35;;
58581;SDS011;44361;51.476;5.700;2023-06-24T01:42:10;29.63;;;21.02;;
58581;SDS011;44361;51.476;5.700;2023-06-24T01:44:38;36.45;;;22.25;;
58581;SDS011;44361;51.476;5.700;2023-06-24T01:47:06;33.13;;;23.08;;
58581;SDS011;44361;51.476;5.700;2023-06-24T01:49:33;32.33;;;22.02;;
58581;SDS011;44361;51.476;5.700;2023-06-24T01:52:07;32.85;;;22.48;;
58581;SDS011;44361;51.476;5.700;2023-06-24T01:54:35;33.13;;;22.58;;
58581;SDS011;44361;51.476;5.700;2023-06-24T01:57:03;32.70;;;21.83;;
58581;SDS011;44361;51.476;5.700;2023-06-24T01:59:32;38.33;;;22.92;;
58581;SDS011;44361;51.476;5.700;2023-06-24T02:02:01;31.17;;;23.05;;
58581;SDS011;44361;51.476;5.700;2023-06-24T02:04:28;37.20;;;23.25;;
58581;SDS011;44361;51.476;5.700;2023-06-24T02:06:57;33.90;;;24.27;;
58581;SDS011;44361;51.476;5.700;2023-06-24T02:09:25;36.45;;;24.58;;
58581;SDS011;44361;51.476;5.700;2023-06-24T02:11:53;33.85;;;22.65;;
58581;SDS011;44361;51.476;5.700;2023-06-24T02:14:20;36.80;;;23.35;;
58581;SDS011;44361;51.476;5.700;2023-06-24T02:16:45;32.80;;;23.50;;
58581;SDS011;44361;51.476;5.700;2023-06-24T02:19:12;36.28;;;24.45;;
58581;SDS011;44361;51.476;5.700;2023-06-24T02:21:42;36.47;;;24.70;;
58581;SDS011;44361;51.476;5.700;2023-06-24T02:24:09;33.55;;;23.80;;
58581;SDS011;44361;51.476;5.700;2023-06-24T02:26:36;35.65;;;24.42;;
58581;SDS011;44361;51.476;5.700;2023-06-24T02:29:05;37.78;;;24.90;;
58581;SDS011;44361;51.476;5.700;2023-06-24T02:31:34;34.33;;;23.77;;
58581;SDS011;44361;51.476;5.700;2023-06-24T02:33:59;41.33;;;24.75;;
58581;SDS011;44361;51.476;5.700;2023-06-24T02:36:25;35.38;;;23.58;;
58581;SDS011;44361;51.476;5.700;2023-06-24T02:38:50;35.75;;;22.58;;
58581;SDS011;44361;51.476;5.700;2023-06-24T02:41:16;34.92;;;23.05;;
58581;SDS011;44361;51.476;5.700;2023-06-24T02:43:42;31.38;;;20.95;;
58581;SDS011;44361;51.476;5.700;2023-06-24T02:46:07;37.58;;;22.60;;
58581;SDS011;44361;51.476;5.700;2023-06-24T02:48:34;30.98;;;21.38;;
58581;SDS011;44361;51.476;5.700;2023-06-24T02:51:02;29.20;;;21.50;;
58581;SDS011;44361;51.476;5.700;2023-06-24T02:53:28;31.58;;;20.83;;
58581;SDS011;44361;51.476;5.700;2023-06-24T02:55:55;28.13;;;19.45;;
58581;SDS011;44361;51.476;5.700;2023-06-24T02:58:23;30.08;;;19.80;;
58581;SDS011;44361;51.476;5.700;2023-06-24T03:00:56;30.25;;;19.38;;
58581;SDS011;44361;51.476;5.700;2023-06-24T03:03:23;27.38;;;18.58;;
58581;SDS011;44361;51.476;5.700;2023-06-24T03:05:50;28.92;;;19.05;;
58581;SDS011;44361;51.476;5.700;2023-06-24T03:08:16;29.02;;;19.80;;
58581;SDS011;44361;51.476;5.700;2023-06-24T03:10:42;26.80;;;18.00;;
58581;SDS011;44361;51.476;5.700;2023-06-24T03:13:08;29.88;;;17.95;;
58581;SDS011;44361;51.476;5.700;2023-06-24T03:15:33;26.65;;;18.33;;
58581;SDS011;44361;51.476;5.700;2023-06-24T03:17:59;28.45;;;18.10;;
58581;SDS011;44361;51.476;5.700;2023-06-24T03:20:24;29.88;;;18.48;;
58581;SDS011;44361;51.476;5.700;2023-06-24T03:22:50;31.30;;;17.77;;
58581;SDS011;44361;51.476;5.700;2023-06-24T03:25:17;30.38;;;18.60;;
58581;SDS011;44361;51.476;5.700;2023-06-24T03:27:42;23.50;;;16.67;;
58581;SDS011;44361;51.476;5.700;2023-06-24T03:30:08;31.80;;;18.30;;
58581;SDS011;44361;51.476;5.700;2023-06-24T03:32:36;28.10;;;18.95;;
58581;SDS011;44361;51.476;5.700;2023-06-24T03:35:02;29.45;;;18.45;;
58581;SDS011;44361;51.476;5.700;2023-06-24T03:37:28;26.17;;;18.05;;
58581;SDS011;44361;51.476;5.700;2023-06-24T03:39:54;25.92;;;18.02;;
58581;SDS011;44361;51.476;5.700;2023-06-24T03:42:21;24.05;;;16.83;;
58581;SDS011;44361;51.476;5.700;2023-06-24T03:44:46;26.88;;;18.08;;
58581;SDS011;44361;51.476;5.700;2023-06-24T03:47:12;26.60;;;17.58;;
58581;SDS011;44361;51.476;5.700;2023-06-24T03:49:37;32.97;;;18.45;;
58581;SDS011;44361;51.476;5.700;2023-06-24T03:52:03;27.98;;;18.02;;
58581;SDS011;44361;51.476;5.700;2023-06-24T03:54:30;28.48;;;18.60;;
58581;SDS011;44361;51.476;5.700;2023-06-24T03:56:56;29.85;;;17.65;;
58581;SDS011;44361;51.476;5.700;2023-06-24T03:59:21;29.27;;;17.42;;
58581;SDS011;44361;51.476;5.700;2023-06-24T04:01:47;31.67;;;19.13;;
58581;SDS011;44361;51.476;5.700;2023-06-24T04:04:12;26.08;;;17.80;;
58581;SDS011;44361;51.476;5.700;2023-06-24T04:06:38;26.17;;;16.55;;
58581;SDS011;44361;51.476;5.700;2023-06-24T04:09:03;23.63;;;15.52;;
58581;SDS011;44361;51.476;5.700;2023-06-24T04:11:31;22.83;;;16.20;;
58581;SDS011;44361;51.476;5.700;2023-06-24T04:13:57;24.17;;;15.75;;
58581;SDS011;44361;51.476;5.700;2023-06-24T04:16:22;23.42;;;15.32;;
58581;SDS011;44361;51.476;5.700;2023-06-24T04:18:48;21.98;;;15.70;;
58581;SDS011;44361;51.476;5.700;2023-06-24T04:21:14;24.00;;;16.02;;
58581;SDS011;44361;51.476;5.700;2023-06-24T04:23:40;25.33;;;16.02;;
58581;SDS011;44361;51.476;5.700;2023-06-24T04:26:05;22.55;;;14.77;;
58581;SDS011;44361;51.476;5.700;2023-06-24T04:28:31;22.50;;;14.27;;
58581;SDS011;44361;51.476;5.700;2023-06-24T04:30:57;19.85;;;13.73;;
58581;SDS011;44361;51.476;5.700;2023-06-24T04:33:23;21.65;;;13.82;;
58581;SDS011;44361;51.476;5.700;2023-06-24T04:35:49;20.00;;;13.65;;
58581;SDS011;44361;51.476;5.700;2023-06-24T04:38:16;21.02;;;12.52;;
58581;SDS011;44361;51.476;5.700;2023-06-24T04:40:43;21.42;;;12.43;;
58581;SDS011;44361;51.476;5.700;2023-06-24T04:43:09;20.15;;;12.25;;
58581;SDS011;44361;51.476;5.700;2023-06-24T04:45:35;19.80;;;12.70;;
58581;SDS011;44361;51.476;5.700;2023-06-24T04:48:00;19.80;;;12.25;;
58581;SDS011;44361;51.476;5.700;2023-06-24T04:50:26;17.27;;;12.20;;
58581;SDS011;44361;51.476;5.700;2023-06-24T04:52:52;14.38;;;11.55;;
58581;SDS011;44361;51.476;5.700;2023-06-24T04:55:20;20.33;;;12.82;;
58581;SDS011;44361;51.476;5.700;2023-06-24T04:57:48;19.02;;;11.45;;
58581;SDS011;44361;51.476;5.700;2023-06-24T05:00:14;18.38;;;11.65;;
58581;SDS011;44361;51.476;5.700;2023-06-24T05:02:40;15.85;;;10.00;;
58581;SDS011;44361;51.476;5.700;2023-06-24T05:05:06;14.70;;;9.20;;
58581;SDS011;44361;51.476;5.700;2023-06-24T05:07:32;11.48;;;7.80;;
58581;SDS011;44361;51.476;5.700;2023-06-24T05:09:58;9.68;;;7.22;;
58581;SDS011;44361;51.476;5.700;2023-06-24T05:12:23;9.10;;;7.03;;
58581;SDS011;44361;51.476;5.700;2023-06-24T05:14:50;9.90;;;6.28;;
58581;SDS011;44361;51.476;5.700;2023-06-24T05:17:17;11.27;;;7.22;;
58581;SDS011;44361;51.476;5.700;2023-06-24T05:19:43;8.93;;;6.60;;
58581;SDS011;44361;51.476;5.700;2023-06-24T05:22:08;10.95;;;7.00;;
58581;SDS011;44361;51.476;5.700;2023-06-24T05:24:34;11.00;;;6.50;;
58581;SDS011;44361;51.476;5.700;2023-06-24T05:27:03;10.85;;;6.68;;
58581;SDS011;44361;51.476;5.700;2023-06-24T05:29:30;12.05;;;6.82;;
58581;SDS011;44361;51.476;5.700;2023-06-24T05:31:56;9.82;;;6.75;;
58581;SDS011;44361;51.476;5.700;2023-06-24T05:34:22;12.43;;;6.68;;
58581;SDS011;44361;51.476;5.700;2023-06-24T05:36:47;11.02;;;6.93;;
58581;SDS011;44361;51.476;5.700;2023-06-24T05:39:13;11.85;;;7.22;;
58581;SDS011;44361;51.476;5.700;2023-06-24T05:41:38;12.35;;;6.72;;
58581;SDS011;44361;51.476;5.700;2023-06-24T05:44:07;12.55;;;7.60;;
58581;SDS011;44361;51.476;5.700;2023-06-24T05:46:36;10.00;;;6.90;;
58581;SDS011;44361;51.476;5.700;2023-06-24T05:49:02;13.85;;;8.48;;
58581;SDS011;44361;51.476;5.700;2023-06-24T05:51:28;12.15;;;7.40;;
58581;SDS011;44361;51.476;5.700;2023-06-24T05:53:54;12.27;;;7.72;;
58581;SDS011;44361;51.476;5.700;2023-06-24T05:56:20;12.55;;;8.23;;
58581;SDS011;44361;51.476;5.700;2023-06-24T05:58:47;13.50;;;7.45;;
58581;SDS011;44361;51.476;5.700;2023-06-24T06:01:13;11.60;;;7.60;;
58581;SDS011;44361;51.476;5.700;2023-06-24T06:03:39;14.93;;;8.10;;
58581;SDS011;44361;51.476;5.700;2023-06-24T06:06:04;11.35;;;6.82;;
58581;SDS011;44361;51.476;5.700;2023-06-24T06:08:30;11.20;;;6.65;;
58581;SDS011;44361;51.476;5.700;2023-06-24T06:10:56;13.27;;;6.80;;
58581;SDS011;44361;51.476;5.700;2023-06-24T06:13:21;8.57;;;6.28;;
58581;SDS011;44361;51.476;5.700;2023-06-24T06:15:47;10.07;;;6.30;;
58581;SDS011;44361;51.476;5.700;2023-06-24T06:18:12;10.20;;;6.13;;
58581;SDS011;44361;51.476;5.700;2023-06-24T06:20:38;7.05;;;5.50;;
58581;SDS011;44361;51.476;5.700;2023-06-24T06:23:03;7.97;;;5.53;;
58581;SDS011;44361;51.476;5.700;2023-06-24T06:25:29;8.80;;;5.13;;
58581;SDS011;44361;51.476;5.700;2023-06-24T06:27:55;8.70;;;5.38;;
58581;SDS011;44361;51.476;5.700;2023-06-24T06:30:20;13.02;;;5.40;;
58581;SDS011;44361;51.476;5.700;2023-06-24T06:32:46;7.32;;;4.90;;
58581;SDS011;44361;51.476;5.700;2023-06-24T06:35:11;12.25;;;5.88;;
58581;SDS011;44361;51.476;5.700;2023-06-24T06:37:37;12.23;;;4.85;;
58581;SDS011;44361;51.476;5.700;2023-06-24T06:40:02;7.72;;;4.68;;
58581;SDS011;44361;51.476;5.700;2023-06-24T06:42:29;10.60;;;4.60;;
58581;SDS011;44361;51.476;5.700;2023-06-24T06:44:54;5.85;;;4.35;;
58581;SDS011;44361;51.476;5.700;2023-06-24T06:47:20;6.88;;;4.40;;
58581;SDS011;44361;51.476;5.700;2023-06-24T06:49:45;6.20;;;4.22;;
58581;SDS011;44361;51.476;5.700;2023-06-24T06:52:11;9.57;;;4.40;;
58581;SDS011;44361;51.476;5.700;2023-06-24T06:54:37;6.00;;;3.70;;
58581;SDS011;44361;51.476;5.700;2023-06-24T06:57:03;6.50;;;3.40;;
58581;SDS011;44361;51.476;5.700;2023-06-24T06:59:30;5.03;;;3.13;;
58581;SDS011;44361;51.476;5.700;2023-06-24T07:01:56;7.30;;;3.17;;
58581;SDS011;44361;51.476;5.700;2023-06-24T07:04:21;4.80;;;2.83;;
58581;SDS011;44361;51.476;5.700;2023-06-24T07:06:47;4.25;;;2.45;;
58581;SDS011;44361;51.476;5.700;2023-06-24T07:09:13;4.13;;;2.67;;
58581;SDS011;44361;51.476;5.700;2023-06-24T07:11:40;3.83;;;2.47;;
58581;SDS011;44361;51.476;5.700;2023-06-24T07:14:06;8.10;;;2.72;;
58581;SDS011;44361;51.476;5.700;2023-06-24T07:16:31;16.30;;;3.03;;
58581;SDS011;44361;51.476;5.700;2023-06-24T07:18:57;6.22;;;2.40;;
58581;SDS011;44361;51.476;5.700;2023-06-24T07:21:22;3.15;;;2.05;;
58581;SDS011;44361;51.476;5.700;2023-06-24T07:23:48;3.22;;;2.17;;
58581;SDS011;44361;51.476;5.700;2023-06-24T07:26:14;4.43;;;2.33;;
58581;SDS011;44361;51.476;5.700;2023-06-24T07:28:39;3.10;;;2.10;;
58581;SDS011;44361;51.476;5.700;2023-06-24T07:31:05;5.22;;;2.30;;
58581;SDS011;44361;51.476;5.700;2023-06-24T07:33:30;2.83;;;2.13;;
58581;SDS011;44361;51.476;5.700;2023-06-24T07:35:56;5.03;;;2.13;;
58581;SDS011;44361;51.476;5.700;2023-06-24T07:38:22;4.55;;;2.38;;
58581;SDS011;44361;51.476;5.700;2023-06-24T07:40:48;23.77;;;2.95;;
58581;SDS011;44361;51.476;5.700;2023-06-24T07:43:13;4.78;;;1.92;;
58581;SDS011;44361;51.476;5.700;2023-06-24T07:45:39;4.35;;;2.00;;
58581;SDS011;44361;51.476;5.700;2023-06-24T07:48:05;3.78;;;1.88;;
58581;SDS011;44361;51.476;5.700;2023-06-24T07:50:32;3.92;;;2.08;;
58581;SDS011;44361;51.476;5.700;2023-06-24T07:52:58;3.17;;;1.95;;
58581;SDS011;44361;51.476;5.700;2023-06-24T07:55:24;3.10;;;1.90;;
58581;SDS011;44361;51.476;5.700;2023-06-24T07:57:50;2.80;;;2.28;;
58581;SDS011;44361;51.476;5.700;2023-06-24T08:00:15;5.13;;;2.25;;
58581;SDS011;44361;51.476;5.700;2023-06-24T08:02:41;13.65;;;3.15;;
58581;SDS011;44361;51.476;5.700;2023-06-24T08:05:07;10.25;;;2.53;;
58581;SDS011;44361;51.476;5.700;2023-06-24T08:07:34;3.97;;;1.83;;
58581;SDS011;44361;51.476;5.700;2023-06-24T08:10:00;14.77;;;2.50;;
58581;SDS011;44361;51.476;5.700;2023-06-24T08:12:26;6.10;;;1.58;;
58581;SDS011;44361;51.476;5.700;2023-06-24T08:14:51;4.25;;;2.15;;
58581;SDS011;44361;51.476;5.700;2023-06-24T08:17:17;5.32;;;1.98;;
58581;SDS011;44361;51.476;5.700;2023-06-24T08:19:42;3.35;;;1.90;;
58581;SDS011;44361;51.476;5.700;2023-06-24T08:22:08;3.70;;;1.70;;
58581;SDS011;44361;51.476;5.700;2023-06-24T08:24:33;2.80;;;1.90;;
58581;SDS011;44361;51.476;5.700;2023-06-24T08:26:59;2.30;;;1.70;;
58581;SDS011;44361;51.476;5.700;2023-06-24T08:29:24;3.63;;;1.70;;
58581;SDS011;44361;51.476;5.700;2023-06-24T08:31:50;3.05;;;1.65;;
58581;SDS011;44361;51.476;5.700;2023-06-24T08:34:15;1.80;;;1.20;;
58581;SDS011;44361;51.476;5.700;2023-06-24T08:36:41;2.53;;;1.60;;
58581;SDS011;44361;51.476;5.700;2023-06-24T08:39:07;3.75;;;1.65;;
58581;SDS011;44361;51.476;5.700;2023-06-24T08:41:33;4.22;;;1.85;;
58581;SDS011;44361;51.476;5.700;2023-06-24T08:43:58;2.47;;;1.60;;
58581;SDS011;44361;51.476;5.700;2023-06-24T08:46:24;3.25;;;1.70;;
58581;SDS011;44361;51.476;5.700;2023-06-24T08:48:57;3.00;;;1.67;;
58581;SDS011;44361;51.476;5.700;2023-06-24T08:51:27;2.33;;;1.75;;
58581;SDS011;44361;51.476;5.700;2023-06-24T08:53:56;2.05;;;1.40;;
58581;SDS011;44361;51.476;5.700;2023-06-24T08:56:23;2.00;;;1.55;;
58581;SDS011;44361;51.476;5.700;2023-06-24T08:58:50;2.55;;;1.80;;
58581;SDS011;44361;51.476;5.700;2023-06-24T09:01:16;2.95;;;1.90;;
58581;SDS011;44361;51.476;5.700;2023-06-24T09:03:42;2.38;;;1.60;;
58581;SDS011;44361;51.476;5.700;2023-06-24T09:06:08;3.85;;;1.50;;
58581;SDS011;44361;51.476;5.700;2023-06-24T09:08:33;2.38;;;1.65;;
58581;SDS011;44361;51.476;5.700;2023-06-24T09:11:00;2.33;;;1.70;;
58581;SDS011;44361;51.476;5.700;2023-06-24T09:13:44;4.30;;;1.67;;
58581;SDS011;44361;51.476;5.700;2023-06-24T09:16:13;2.87;;;1.80;;
58581;SDS011;44361;51.476;5.700;2023-06-24T09:18:39;2.47;;;1.70;;
58581;SDS011;44361;51.476;5.700;2023-06-24T09:21:05;2.63;;;1.60;;
58581;SDS011;44361;51.476;5.700;2023-06-24T09:23:35;2.90;;;1.95;;
58581;SDS011;44361;51.476;5.700;2023-06-24T09:26:02;3.30;;;1.90;;
58581;SDS011;44361;51.476;5.700;2023-06-24T09:28:27;2.40;;;1.70;;
58581;SDS011;44361;51.476;5.700;2023-06-24T09:31:06;2.45;;;1.40;;
58581;SDS011;44361;51.476;5.700;2023-06-24T09:33:33;4.45;;;1.80;;
58581;SDS011;44361;51.476;5.700;2023-06-24T09:36:01;2.33;;;1.63;;
58581;SDS011;44361;51.476;5.700;2023-06-24T09:38:37;2.25;;;1.80;;
58581;SDS011;44361;51.476;5.700;2023-06-24T09:41:06;3.15;;;1.80;;
58581;SDS011;44361;51.476;5.700;2023-06-24T09:43:36;2.75;;;1.90;;
58581;SDS011;44361;51.476;5.700;2023-06-24T09:46:04;2.33;;;1.60;;
58581;SDS011;44361;51.476;5.700;2023-06-24T09:48:31;3.80;;;1.83;;
58581;SDS011;44361;51.476;5.700;2023-06-24T09:51:04;2.80;;;1.90;;
58581;SDS011;44361;51.476;5.700;2023-06-24T09:53:30;3.67;;;1.92;;
58581;SDS011;44361;51.476;5.700;2023-06-24T09:55:57;2.45;;;1.75;;
58581;SDS011;44361;51.476;5.700;2023-06-24T09:58:25;1.85;;;1.40;;
58581;SDS011;44361;51.476;5.700;2023-06-24T10:00:51;2.35;;;1.80;;
58581;SDS011;44361;51.476;5.700;2023-06-24T10:03:18;3.13;;;1.60;;
58581;SDS011;44361;51.476;5.700;2023-06-24T10:05:44;3.20;;;1.70;;
58581;SDS011;44361;51.476;5.700;2023-06-24T10:08:10;11.00;;;2.25;;
58581;SDS011;44361;51.476;5.700;2023-06-24T10:10:38;4.63;;;1.60;;
58581;SDS011;44361;51.476;5.700;2023-06-24T10:13:03;3.42;;;1.77;;
58581;SDS011;44361;51.476;5.700;2023-06-24T10:15:29;2.42;;;1.63;;
58581;SDS011;44361;51.476;5.700;2023-06-24T10:17:55;1.80;;;1.52;;
58581;SDS011;44361;51.476;5.700;2023-06-24T10:20:24;2.13;;;1.35;;
58581;SDS011;44361;51.476;5.700;2023-06-24T10:22:51;2.35;;;1.50;;
58581;SDS011;44361;51.476;5.700;2023-06-24T10:25:17;4.28;;;1.58;;
58581;SDS011;44361;51.476;5.700;2023-06-24T10:27:43;2.53;;;1.40;;
58581;SDS011;44361;51.476;5.700;2023-06-24T10:30:09;2.60;;;1.40;;
58581;SDS011;44361;51.476;5.700;2023-06-24T10:32:43;4.90;;;1.80;;
58581;SDS011;44361;51.476;5.700;2023-06-24T10:35:25;2.55;;;1.48;;
58581;SDS011;44361;51.476;5.700;2023-06-24T10:37:55;2.35;;;1.40;;
58581;SDS011;44361;51.476;5.700;2023-06-24T10:40:45;2.53;;;1.58;;
58581;SDS011;44361;51.476;5.700;2023-06-24T10:43:25;4.72;;;1.40;;
58581;SDS011;44361;51.476;5.700;2023-06-24T10:45:57;3.05;;;1.77;;
58581;SDS011;44361;51.476;5.700;2023-06-24T10:48:26;2.03;;;1.52;;
58581;SDS011;44361;51.476;5.700;2023-06-24T10:50:52;4.57;;;1.25;;
58581;SDS011;44361;51.476;5.700;2023-06-24T10:53:17;3.90;;;1.48;;
58581;SDS011;44361;51.476;5.700;2023-06-24T10:55:46;2.63;;;1.40;;
58581;SDS011;44361;51.476;5.700;2023-06-24T10:58:12;1.88;;;1.17;;
58581;SDS011;44361;51.476;5.700;2023-06-24T11:00:40;2.05;;;1.20;;
58581;SDS011;44361;51.476;5.700;2023-06-24T11:03:10;4.10;;;1.65;;
58581;SDS011;44361;51.476;5.700;2023-06-24T11:05:40;1.67;;;1.13;;
58581;SDS011;44361;51.476;5.700;2023-06-24T11:08:06;3.20;;;1.35;;
58581;SDS011;44361;51.476;5.700;2023-06-24T11:10:32;2.97;;;1.60;;
58581;SDS011;44361;51.476;5.700;2023-06-24T11:13:04;2.15;;;1.40;;
58581;SDS011;44361;51.476;5.700;2023-06-24T11:15:31;3.22;;;1.55;;
58581;SDS011;44361;51.476;5.700;2023-06-24T11:17:58;2.47;;;1.40;;
58581;SDS011;44361;51.476;5.700;2023-06-24T11:20:23;2.63;;;1.65;;
58581;SDS011;44361;51.476;5.700;2023-06-24T11:22:49;2.95;;;1.52;;
58581;SDS011;44361;51.476;5.700;2023-06-24T11:25:21;2.72;;;1.50;;
58581;SDS011;44361;51.476;5.700;2023-06-24T11:27:47;2.95;;;1.38;;
58581;SDS011;44361;51.476;5.700;2023-06-24T11:30:15;2.10;;;1.50;;
58581;SDS011;44361;51.476;5.700;2023-06-24T11:32:42;4.63;;;2.00;;
58581;SDS011;44361;51.476;5.700;2023-06-24T11:35:09;1.80;;;1.40;;
58581;SDS011;44361;51.476;5.700;2023-06-24T11:37:36;1.95;;;1.15;;
58581;SDS011;44361;51.476;5.700;2023-06-24T11:40:06;2.75;;;1.60;;
58581;SDS011;44361;51.476;5.700;2023-06-24T11:42:35;2.35;;;1.58;;
58581;SDS011;44361;51.476;5.700;2023-06-24T11:45:09;3.28;;;1.55;;
58581;SDS011;44361;51.476;5.700;2023-06-24T11:47:36;5.97;;;1.77;;
58581;SDS011;44361;51.476;5.700;2023-06-24T11:50:04;2.15;;;1.60;;
58581;SDS011;44361;51.476;5.700;2023-06-24T11:52:44;3.53;;;2.10;;
58581;SDS011;44361;51.476;5.700;2023-06-24T11:57:50;3.15;;;1.98;;
58581;SDS011;44361;51.476;5.700;2023-06-24T12:00:16;2.20;;;1.73;;
58581;SDS011;44361;51.476;5.700;2023-06-24T12:02:44;5.03;;;1.90;;
58581;SDS011;44361;51.476;5.700;2023-06-24T12:05:09;3.63;;;1.55;;
58581;SDS011;44361;51.476;5.700;2023-06-24T12:07:35;2.25;;;1.67;;
58581;SDS011;44361;51.476;5.700;2023-06-24T12:10:00;2.67;;;1.70;;
58581;SDS011;44361;51.476;5.700;2023-06-24T12:12:26;2.15;;;1.63;;
58581;SDS011;44361;51.476;5.700;2023-06-24T12:14:51;3.80;;;1.98;;
58581;SDS011;44361;51.476;5.700;2023-06-24T12:17:17;2.88;;;1.85;;
58581;SDS011;44361;51.476;5.700;2023-06-24T12:19:42;3.03;;;1.75;;
58581;SDS011;44361;51.476;5.700;2023-06-24T12:22:08;8.25;;;2.10;;
58581;SDS011;44361;51.476;5.700;2023-06-24T12:24:34;2.97;;;2.05;;
58581;SDS011;44361;51.476;5.700;2023-06-24T12:26:59;3.08;;;1.80;;
58581;SDS011;44361;51.476;5.700;2023-06-24T12:29:25;5.07;;;1.90;;
58581;SDS011;44361;51.476;5.700;2023-06-24T12:31:50;2.47;;;1.58;;
58581;SDS011;44361;51.476;5.700;2023-06-24T12:34:16;3.85;;;2.15;;
58581;SDS011;44361;51.476;5.700;2023-06-24T12:36:41;3.58;;;1.48;;
58581;SDS011;44361;51.476;5.700;2023-06-24T12:39:07;3.85;;;1.90;;
58581;SDS011;44361;51.476;5.700;2023-06-24T12:41:32;2.70;;;1.75;;
58581;SDS011;44361;51.476;5.700;2023-06-24T12:43:58;3.17;;;2.28;;
58581;SDS011;44361;51.476;5.700;2023-06-24T12:46:24;3.00;;;1.90;;
58581;SDS011;44361;51.476;5.700;2023-06-24T12:48:49;2.33;;;1.70;;
58581;SDS011;44361;51.476;5.700;2023-06-24T12:51:15;4.53;;;1.92;;
58581;SDS011;44361;51.476;5.700;2023-06-24T12:53:40;3.58;;;1.70;;
58581;SDS011;44361;51.476;5.700;2023-06-24T12:56:06;3.28;;;2.03;;
58581;SDS011;44361;51.476;5.700;2023-06-24T12:58:33;3.67;;;2.05;;
58581;SDS011;44361;51.476;5.700;2023-06-24T13:00:59;3.30;;;2.25;;
58581;SDS011;44361;51.476;5.700;2023-06-24T13:03:24;2.35;;;1.85;;
58581;SDS011;44361;51.476;5.700;2023-06-24T13:05:50;2.53;;;1.65;;
58581;SDS011;44361;51.476;5.700;2023-06-24T13:08:15;3.13;;;2.08;;
58581;SDS011;44361;51.476;5.700;2023-06-24T13:10:41;2.60;;;1.70;;
58581;SDS011;44361;51.476;5.700;2023-06-24T13:13:07;2.55;;;1.80;;
58581;SDS011;44361;51.476;5.700;2023-06-24T13:15:32;3.42;;;2.20;;
58581;SDS011;44361;51.476;5.700;2023-06-24T13:17:58;2.85;;;1.70;;
58581;SDS011;44361;51.476;5.700;2023-06-24T13:20:23;2.50;;;2.03;;
58581;SDS011;44361;51.476;5.700;2023-06-24T13:22:49;5.93;;;2.70;;
58581;SDS011;44361;51.476;5.700;2023-06-24T13:25:14;4.07;;;2.15;;
58581;SDS011;44361;51.476;5.700;2023-06-24T13:27:40;3.58;;;1.95;;
58581;SDS011;44361;51.476;5.700;2023-06-24T13:30:06;3.13;;;2.00;;
58581;SDS011;44361;51.476;5.700;2023-06-24T13:32:32;3.42;;;1.90;;
58581;SDS011;44361;51.476;5.700;2023-06-24T13:34:57;3.22;;;2.00;;
58581;SDS011;44361;51.476;5.700;2023-06-24T13:37:23;2.28;;;1.77;;
58581;SDS011;44361;51.476;5.700;2023-06-24T13:39:49;3.10;;;2.08;;
58581;SDS011;44361;51.476;5.700;2023-06-24T13:42:15;2.97;;;2.28;;
58581;SDS011;44361;51.476;5.700;2023-06-24T13:44:40;3.90;;;2.20;;
58581;SDS011;44361;51.476;5.700;2023-06-24T13:47:06;2.30;;;1.70;;
58581;SDS011;44361;51.476;5.700;2023-06-24T13:49:31;2.60;;;1.88;;
58581;SDS011;44361;51.476;5.700;2023-06-24T13:51:57;2.78;;;2.05;;
58581;SDS011;44361;51.476;5.700;2023-06-24T13:54:22;2.90;;;2.13;;
58581;SDS011;44361;51.476;5.700;2023-06-24T13:56:49;3.38;;;2.00;;
58581;SDS011;44361;51.476;5.700;2023-06-24T13:59:15;3.20;;;2.17;;
58581;SDS011;44361;51.476;5.700;2023-06-24T14:01:40;7.47;;;2.22;;
58581;SDS011;44361;51.476;5.700;2023-06-24T14:04:06;3.20;;;1.73;;
58581;SDS011;44361;51.476;5.700;2023-06-24T14:06:31;6.72;;;2.40;;
58581;SDS011;44361;51.476;5.700;2023-06-24T14:08:57;2.20;;;1.80;;
58581;SDS011;44361;51.476;5.700;2023-06-24T14:11:23;4.65;;;1.63;;
58581;SDS011;44361;51.476;5.700;2023-06-24T14:13:48;3.38;;;2.08;;
58581;SDS011;44361;51.476;5.700;2023-06-24T14:16:15;3.58;;;2.00;;
58581;SDS011;44361;51.476;5.700;2023-06-24T14:18:41;8.68;;;2.28;;
58581;SDS011;44361;51.476;5.700;2023-06-24T14:21:08;3.10;;;1.85;;
58581;SDS011;44361;51.476;5.700;2023-06-24T14:23:34;2.95;;;2.08;;
58581;SDS011;44361;51.476;5.700;2023-06-24T14:26:00;2.80;;;2.08;;
58581;SDS011;44361;51.476;5.700;2023-06-24T14:28:26;5.13;;;1.92;;
58581;SDS011;44361;51.476;5.700;2023-06-24T14:30:51;3.70;;;2.20;;
58581;SDS011;44361;51.476;5.700;2023-06-24T14:33:17;3.63;;;2.30;;
58581;SDS011;44361;51.476;5.700;2023-06-24T14:35:43;4.47;;;2.38;;
58581;SDS011;44361;51.476;5.700;2023-06-24T14:38:09;3.45;;;2.25;;
58581;SDS011;44361;51.476;5.700;2023-06-24T14:40:35;5.35;;;2.30;;
58581;SDS011;44361;51.476;5.700;2023-06-24T14:43:01;4.78;;;2.33;;
58581;SDS011;44361;51.476;5.700;2023-06-24T14:45:26;5.18;;;2.15;;
58581;SDS011;44361;51.476;5.700;2023-06-24T14:47:52;4.28;;;2.30;;
58581;SDS011;44361;51.476;5.700;2023-06-24T14:50:18;4.47;;;1.80;;
58581;SDS011;44361;51.476;5.700;2023-06-24T14:52:44;6.57;;;3.13;;